createdAt,value
2018-11-14T00:00:16.707Z,96.7
2018-11-14T00:01:16.798Z,96.8
2018-11-14T00:02:17.078Z,97.1
2018-11-14T00:03:16.394Z,97.1
2018-11-14T00:04:16.709Z,97.2
2018-11-14T00:05:16.984Z,97.5
2018-11-14T00:06:17.288Z,97.7
2018-11-14T00:07:16.598Z,97.2
2018-11-14T00:08:16.899Z,97.1
2018-11-14T00:09:17.552Z,97.1
2018-11-14T00:10:18.165Z,97.2
2018-11-14T00:11:16.931Z,97.0
2018-11-14T00:12:17.245Z,97.1
2018-11-14T00:13:16.537Z,97.1
2018-11-14T00:14:16.828Z,97.2
2018-11-14T00:15:17.126Z,97.2
2018-11-14T00:16:16.430Z,97.2
2018-11-14T00:17:16.712Z,97.5
2018-11-14T00:18:17.012Z,97.6
2018-11-14T00:19:16.407Z,98.1
2018-11-14T00:20:16.825Z,98.6
2018-11-14T00:21:16.805Z,98.5
2018-11-14T00:22:17.109Z,98.2
2018-11-14T00:23:16.506Z,98.1
2018-11-14T00:24:16.824Z,98.1
2018-11-14T00:25:17.201Z,98.3
2018-11-14T00:26:16.508Z,98.2
2018-11-14T00:27:16.824Z,97.8
2018-11-14T00:28:17.149Z,98.0
2018-11-14T00:29:16.476Z,98.5
2018-11-14T00:30:16.921Z,98.5
2018-11-14T00:31:16.833Z,98.6
2018-11-14T00:32:17.135Z,98.5
2018-11-14T00:33:17.356Z,98.6
2018-11-14T00:34:16.690Z,98.7
2018-11-14T00:35:16.995Z,98.8
2018-11-14T00:36:16.312Z,99.0
2018-11-14T00:37:16.600Z,99.2
2018-11-14T00:38:16.867Z,99.1
2018-11-14T00:39:17.180Z,99.2
2018-11-14T00:40:16.516Z,99.2
2018-11-14T00:41:16.575Z,99.2
2018-11-14T00:42:16.863Z,99.2
2018-11-14T00:43:17.155Z,99.2
2018-11-14T00:44:16.438Z,99.1
2018-11-14T00:45:16.752Z,99.1
2018-11-14T00:46:17.064Z,99.0
2018-11-14T00:47:16.343Z,99.0
2018-11-14T00:48:16.626Z,98.9
2018-11-14T00:49:16.920Z,98.8
2018-11-14T00:50:17.817Z,98.5
2018-11-14T00:51:17.281Z,97.2
2018-11-14T00:52:16.612Z,97.1
2018-11-14T00:53:16.947Z,97.0
2018-11-14T00:54:17.304Z,96.8
2018-11-14T00:55:16.636Z,96.9
2018-11-14T00:56:17.132Z,97.0
2018-11-14T00:57:16.447Z,97.0
2018-11-14T00:58:16.760Z,97.2
2018-11-14T00:59:17.053Z,97.2
2018-11-14T01:00:16.391Z,97.2
2018-11-14T01:01:16.502Z,97.2
2018-11-14T01:02:16.790Z,97.3
2018-11-14T01:03:17.083Z,97.3
2018-11-14T01:04:16.443Z,97.3
2018-11-14T01:05:16.766Z,97.5
2018-11-14T01:06:17.075Z,97.5
2018-11-14T01:07:16.439Z,97.5
2018-11-14T01:08:16.759Z,97.5
2018-11-14T01:09:17.163Z,97.3
2018-11-14T01:10:16.502Z,97.3
2018-11-14T01:11:16.573Z,97.2
2018-11-14T01:12:16.877Z,97.5
2018-11-14T01:13:17.476Z,97.4
2018-11-14T01:14:16.860Z,97.6
2018-11-14T01:15:17.167Z,97.6
2018-11-14T01:16:16.507Z,97.7
2018-11-14T01:17:16.863Z,97.8
2018-11-14T01:18:17.140Z,97.7
2018-11-14T01:19:16.439Z,97.5
2018-11-14T01:20:16.769Z,97.5
2018-11-14T01:21:16.789Z,97.6
2018-11-14T01:22:17.116Z,98.0
2018-11-14T01:23:16.433Z,97.9
2018-11-14T01:24:16.744Z,97.4
2018-11-14T01:25:17.087Z,97.2
2018-11-14T01:26:16.427Z,96.9
2018-11-14T01:27:16.989Z,96.9
2018-11-14T01:28:17.289Z,97.2
2018-11-14T01:29:16.597Z,97.3
2018-11-14T01:30:16.915Z,97.5
2018-11-14T01:31:16.953Z,97.3
2018-11-14T01:32:17.263Z,97.3
2018-11-14T01:33:16.589Z,97.5
2018-11-14T01:34:16.900Z,97.5
2018-11-14T01:35:17.251Z,97.5
2018-11-14T01:36:16.562Z,97.5
2018-11-14T01:37:16.869Z,97.5
2018-11-14T01:38:17.149Z,97.3
2018-11-14T01:39:16.454Z,97.3
2018-11-14T01:40:16.760Z,97.4
2018-11-14T01:41:16.785Z,97.4
2018-11-14T01:42:17.125Z,97.5
2018-11-14T01:43:16.457Z,97.5
2018-11-14T01:44:16.781Z,97.5
2018-11-14T01:45:17.074Z,97.6
2018-11-14T01:46:16.391Z,97.7
2018-11-14T01:47:16.718Z,98.0
2018-11-14T01:48:17.032Z,98.2
2018-11-14T01:49:16.345Z,98.3
2018-11-14T01:50:16.635Z,98.3
2018-11-14T01:51:16.684Z,98.3
2018-11-14T01:52:16.991Z,97.6
2018-11-14T01:53:16.474Z,97.2
2018-11-14T01:54:16.788Z,97.1
2018-11-14T01:55:17.091Z,97.2
2018-11-14T01:56:16.400Z,97.2
2018-11-14T01:57:16.709Z,97.2
2018-11-14T01:58:17.013Z,97.1
2018-11-14T01:59:16.295Z,97.2
2018-11-14T02:00:16.625Z,97.3
2018-11-14T02:01:16.651Z,97.3
2018-11-14T02:02:16.966Z,97.3
2018-11-14T02:03:17.274Z,97.5
2018-11-14T02:04:16.574Z,98.2
2018-11-14T02:05:16.899Z,98.0
2018-11-14T02:06:17.209Z,98.0
2018-11-14T02:07:16.517Z,98.1
2018-11-14T02:08:16.830Z,98.0
2018-11-14T02:09:17.119Z,97.6
2018-11-14T02:10:16.451Z,97.4
2018-11-14T02:11:16.497Z,97.1
2018-11-14T02:12:16.811Z,97.2
2018-11-14T02:13:17.122Z,97.1
2018-11-14T02:14:16.428Z,97.3
2018-11-14T02:15:16.699Z,97.3
2018-11-14T02:16:16.988Z,97.2
2018-11-14T02:17:16.258Z,97.2
2018-11-14T02:18:16.568Z,97.2
2018-11-14T02:19:16.899Z,97.2
2018-11-14T02:20:17.219Z,97.5
2018-11-14T02:21:17.272Z,97.8
2018-11-14T02:22:16.582Z,97.8
2018-11-14T02:23:16.910Z,97.5
2018-11-14T02:24:17.189Z,97.3
2018-11-14T02:25:16.511Z,97.7
2018-11-14T02:26:16.818Z,97.1
2018-11-14T02:27:17.143Z,97.0
2018-11-14T02:28:16.451Z,97.0
2018-11-14T02:29:16.767Z,96.9
2018-11-14T02:30:17.098Z,97.0
2018-11-14T02:31:17.128Z,96.5
2018-11-14T02:32:16.424Z,96.7
2018-11-14T02:33:16.752Z,96.7
2018-11-14T02:34:17.060Z,97.0
2018-11-14T02:35:16.372Z,97.0
2018-11-14T02:36:16.690Z,97.5
2018-11-14T02:37:17.013Z,97.8
2018-11-14T02:38:16.330Z,98.3
2018-11-14T02:39:16.635Z,98.2
2018-11-14T02:40:16.962Z,98.0
2018-11-14T02:41:16.990Z,97.5
2018-11-14T02:42:16.315Z,97.0
2018-11-14T02:43:16.625Z,96.9
2018-11-14T02:44:16.950Z,96.8
2018-11-14T02:45:17.265Z,96.6
2018-11-14T02:46:16.592Z,96.9
2018-11-14T02:47:16.894Z,97.0
2018-11-14T02:48:17.471Z,97.2
2018-11-14T02:49:16.787Z,97.2
2018-11-14T02:50:17.124Z,97.2
2018-11-14T02:51:17.122Z,97.1
2018-11-14T02:52:16.443Z,97.0
2018-11-14T02:53:16.721Z,97.0
2018-11-14T02:54:17.019Z,97.0
2018-11-14T02:55:16.332Z,97.1
2018-11-14T02:56:16.657Z,97.2
2018-11-14T02:57:16.958Z,97.2
2018-11-14T02:58:17.592Z,97.2
2018-11-14T02:59:16.912Z,97.2
2018-11-14T03:00:17.229Z,97.2
2018-11-14T03:01:17.270Z,97.1
2018-11-14T03:02:16.612Z,97.0
2018-11-14T03:03:16.931Z,97.0
2018-11-14T03:04:17.246Z,96.9
2018-11-14T03:05:16.573Z,97.0
2018-11-14T03:06:16.883Z,97.1
2018-11-14T03:07:17.202Z,97.2
2018-11-14T03:08:16.507Z,97.3
2018-11-14T03:09:16.839Z,97.5
2018-11-14T03:10:17.183Z,97.4
2018-11-14T03:11:17.217Z,97.4
2018-11-14T03:12:16.740Z,97.5
2018-11-14T03:13:17.240Z,97.4
2018-11-14T03:14:16.726Z,97.4
2018-11-14T03:15:17.040Z,97.3
2018-11-14T03:16:16.325Z,97.3
2018-11-14T03:17:16.619Z,97.2
2018-11-14T03:18:16.953Z,97.0
2018-11-14T03:19:17.260Z,96.8
2018-11-14T03:20:16.611Z,97.0
2018-11-14T03:21:16.607Z,97.3
2018-11-14T03:22:16.905Z,97.4
2018-11-14T03:23:17.218Z,97.6
2018-11-14T03:24:16.539Z,97.6
2018-11-14T03:25:16.830Z,98.0
2018-11-14T03:26:17.181Z,98.2
2018-11-14T03:27:16.521Z,98.3
2018-11-14T03:28:16.830Z,98.2
2018-11-14T03:29:17.150Z,98.2
2018-11-14T03:30:16.485Z,98.2
2018-11-14T03:31:16.490Z,98.3
2018-11-14T03:32:16.842Z,98.6
2018-11-14T03:33:17.171Z,98.6
2018-11-14T03:34:16.505Z,98.7
2018-11-14T03:35:16.912Z,98.4
2018-11-14T03:36:17.221Z,98.3
2018-11-14T03:37:16.549Z,98.4
2018-11-14T03:38:16.851Z,98.4
2018-11-14T03:39:17.184Z,98.5
2018-11-14T03:40:16.541Z,98.3
2018-11-14T03:41:16.551Z,98.5
2018-11-14T03:42:16.847Z,98.5
2018-11-14T03:43:17.167Z,98.4
2018-11-14T03:44:16.475Z,98.5
2018-11-14T03:45:16.819Z,98.5
2018-11-14T03:46:17.129Z,98.7
2018-11-14T03:47:16.424Z,98.8
2018-11-14T03:48:16.708Z,98.9
2018-11-14T03:49:17.031Z,98.8
2018-11-14T03:50:16.340Z,98.8
2018-11-14T03:51:16.369Z,98.8
2018-11-14T03:52:16.685Z,98.7
2018-11-14T03:53:16.973Z,98.5
2018-11-14T03:54:17.321Z,98.5
2018-11-14T03:55:16.624Z,98.5
2018-11-14T03:56:16.922Z,98.5
2018-11-14T03:57:17.234Z,98.5
2018-11-14T03:58:16.751Z,98.3
2018-11-14T03:59:17.392Z,98.2
2018-11-14T04:00:16.698Z,98.3
2018-11-14T04:01:16.751Z,98.3
2018-11-14T04:02:17.098Z,98.3
2018-11-14T04:03:16.419Z,98.1
2018-11-14T04:04:16.741Z,98.1
2018-11-14T04:05:17.131Z,98.0
2018-11-14T04:06:16.463Z,98.2
2018-11-14T04:07:16.774Z,98.3
2018-11-14T04:08:17.092Z,98.4
2018-11-14T04:09:16.580Z,98.5
2018-11-14T04:10:16.988Z,98.6
2018-11-14T04:11:17.042Z,98.5
2018-11-14T04:12:16.337Z,98.3
2018-11-14T04:13:16.629Z,98.3
2018-11-14T04:14:16.947Z,98.5
2018-11-14T04:15:17.252Z,98.3
2018-11-14T04:16:16.585Z,98.2
2018-11-14T04:17:16.896Z,98.0
2018-11-14T04:18:17.215Z,98.2
2018-11-14T04:19:16.540Z,98.3
2018-11-14T04:20:16.901Z,98.5
2018-11-14T04:21:16.894Z,98.7
2018-11-14T04:22:17.207Z,98.8
2018-11-14T04:23:16.534Z,98.8
2018-11-14T04:24:16.848Z,98.8
2018-11-14T04:25:17.166Z,98.8
2018-11-14T04:26:16.471Z,98.8
2018-11-14T04:27:16.778Z,98.8
2018-11-14T04:28:17.092Z,99.0
2018-11-14T04:29:16.418Z,99.0
2018-11-14T04:30:16.757Z,99.0
2018-11-14T04:31:16.796Z,99.0
2018-11-14T04:32:17.131Z,99.0
2018-11-14T04:33:16.467Z,99.1
2018-11-14T04:34:16.789Z,99.1
2018-11-14T04:35:17.097Z,99.2
2018-11-14T04:36:16.423Z,99.2
2018-11-14T04:37:16.711Z,99.2
2018-11-14T04:38:17.002Z,99.2
2018-11-14T04:39:16.401Z,99.3
2018-11-14T04:40:16.727Z,99.3
2018-11-14T04:41:16.756Z,99.2
2018-11-14T04:42:17.086Z,99.2
2018-11-14T04:43:16.397Z,99.2
2018-11-14T04:44:16.724Z,99.3
2018-11-14T04:45:17.020Z,99.3
2018-11-14T04:46:16.333Z,99.4
2018-11-14T04:47:16.648Z,99.5
2018-11-14T04:48:17.141Z,99.5
2018-11-14T04:49:16.523Z,99.6
2018-11-14T04:50:16.847Z,99.7
2018-11-14T04:51:16.902Z,99.5
2018-11-14T04:52:17.195Z,99.5
2018-11-14T04:53:16.486Z,99.3
2018-11-14T04:54:16.790Z,99.3
2018-11-14T04:55:17.382Z,99.4
2018-11-14T04:56:16.689Z,99.4
2018-11-14T04:57:16.997Z,99.3
2018-11-14T04:58:16.295Z,99.3
2018-11-14T04:59:16.637Z,99.4
2018-11-14T05:00:16.998Z,99.2
2018-11-14T05:01:17.022Z,99.2
2018-11-14T05:02:16.370Z,99.1
2018-11-14T05:03:16.672Z,99.0
2018-11-14T05:04:17.004Z,99.0
2018-11-14T05:05:16.319Z,98.8
2018-11-14T05:06:16.635Z,98.9
2018-11-14T05:07:16.954Z,98.8
2018-11-14T05:08:17.236Z,98.8
2018-11-14T05:09:16.501Z,98.7
2018-11-14T05:10:16.825Z,98.8
2018-11-14T05:11:16.875Z,98.8
2018-11-14T05:12:17.208Z,99.0
2018-11-14T05:13:16.503Z,99.0
2018-11-14T05:14:16.793Z,99.0
2018-11-14T05:15:17.145Z,99.0
2018-11-14T05:16:16.456Z,98.9
2018-11-14T05:17:16.724Z,98.9
2018-11-14T05:18:17.032Z,98.9
2018-11-14T05:19:16.337Z,99.0
2018-11-14T05:20:16.654Z,99.0
2018-11-14T05:21:16.688Z,99.0
2018-11-14T05:22:16.990Z,99.1
2018-11-14T05:23:16.296Z,99.3
2018-11-14T05:24:16.612Z,99.3
2018-11-14T05:25:16.943Z,98.9
2018-11-14T05:26:17.273Z,98.5
2018-11-14T05:27:16.584Z,98.3
2018-11-14T05:28:16.865Z,98.4
2018-11-14T05:29:17.173Z,98.5
2018-11-14T05:30:16.481Z,98.7
2018-11-14T05:31:16.894Z,98.8
2018-11-14T05:32:16.458Z,99.0
2018-11-14T05:33:16.780Z,99.0
2018-11-14T05:34:17.084Z,98.8
2018-11-14T05:35:16.413Z,98.7
2018-11-14T05:36:16.721Z,98.8
2018-11-14T05:37:17.028Z,98.8
2018-11-14T05:38:16.351Z,99.0
2018-11-14T05:39:16.648Z,99.3
2018-11-14T05:40:17.260Z,99.5
2018-11-14T05:41:17.068Z,99.6
2018-11-14T05:42:16.385Z,99.7
2018-11-14T05:43:16.697Z,99.5
2018-11-14T05:44:17.013Z,99.5
2018-11-14T05:45:16.363Z,99.5
2018-11-14T05:46:16.678Z,99.6
2018-11-14T05:47:16.988Z,99.5
2018-11-14T05:48:16.320Z,99.6
2018-11-14T05:49:16.659Z,99.4
2018-11-14T05:50:16.991Z,99.2
2018-11-14T05:51:17.059Z,99.2
2018-11-14T05:52:16.373Z,99.2
2018-11-14T05:53:16.719Z,99.5
2018-11-14T05:54:17.055Z,99.6
2018-11-14T05:55:16.373Z,99.6
2018-11-14T05:56:16.683Z,99.8
2018-11-14T05:57:16.999Z,99.8
2018-11-14T05:58:16.319Z,99.8
2018-11-14T05:59:16.626Z,99.8
2018-11-14T06:00:16.990Z,99.8
2018-11-14T06:01:17.002Z,99.8
2018-11-14T06:02:16.322Z,99.9
2018-11-14T06:03:16.900Z,99.8
2018-11-14T06:04:17.207Z,99.8
2018-11-14T06:05:16.514Z,99.8
2018-11-14T06:06:16.805Z,99.8
2018-11-14T06:07:17.451Z,99.7
2018-11-14T06:08:16.872Z,99.7
2018-11-14T06:09:17.205Z,99.8
2018-11-14T06:10:16.527Z,99.8
2018-11-14T06:11:16.602Z,99.8
2018-11-14T06:12:16.885Z,99.8
2018-11-14T06:13:17.187Z,99.6
2018-11-14T06:14:16.503Z,99.7
2018-11-14T06:15:17.007Z,99.8
2018-11-14T06:16:16.456Z,99.7
2018-11-14T06:17:16.743Z,99.5
2018-11-14T06:18:17.088Z,99.6
2018-11-14T06:19:16.398Z,99.6
2018-11-14T06:20:16.753Z,99.5
2018-11-14T06:21:16.785Z,99.7
2018-11-14T06:22:17.104Z,99.8
2018-11-14T06:23:16.394Z,99.8
2018-11-14T06:24:16.704Z,99.8
2018-11-14T06:25:17.016Z,100.0
2018-11-14T06:26:16.332Z,100.0
2018-11-14T06:27:16.656Z,100.0
2018-11-14T06:28:16.969Z,100.0
2018-11-14T06:29:17.261Z,100.0
2018-11-14T06:30:16.612Z,100.0
2018-11-14T06:31:16.646Z,100.0
2018-11-14T06:32:16.924Z,100.0
2018-11-14T06:33:17.220Z,100.0
2018-11-14T06:34:16.545Z,100.0
2018-11-14T06:35:16.880Z,100.0
2018-11-14T06:36:17.216Z,100.0
2018-11-14T06:37:16.581Z,100.0
2018-11-14T06:38:16.893Z,100.0
2018-11-14T06:39:17.177Z,100.0
2018-11-14T06:40:16.491Z,100.0
2018-11-14T06:41:16.562Z,100.0
2018-11-14T06:42:16.875Z,100.0
2018-11-14T06:43:17.180Z,100.0
2018-11-14T06:44:16.462Z,100.0
2018-11-14T06:45:16.793Z,100.0
2018-11-14T06:46:17.104Z,100.0
2018-11-14T06:47:16.374Z,100.0
2018-11-14T06:48:16.680Z,100.0
2018-11-14T06:49:16.970Z,100.0
2018-11-14T06:50:17.294Z,100.0
2018-11-14T06:51:16.355Z,100.0
2018-11-14T06:52:16.662Z,100.0
2018-11-14T06:53:16.982Z,100.0
2018-11-14T06:54:17.323Z,100.0
2018-11-14T06:55:16.652Z,100.0
2018-11-14T06:56:16.945Z,100.0
2018-11-14T06:57:17.250Z,99.9
2018-11-14T06:58:16.559Z,99.9
2018-11-14T06:59:17.071Z,100.0
2018-11-14T07:00:16.453Z,99.9
2018-11-14T07:01:16.536Z,100.0
2018-11-14T07:02:16.845Z,100.0
2018-11-14T07:03:17.282Z,100.0
2018-11-14T07:04:16.686Z,100.0
2018-11-14T07:05:17.444Z,100.0
2018-11-14T07:06:17.056Z,100.0
2018-11-14T07:07:16.417Z,100.0
2018-11-14T07:08:16.770Z,100.0
2018-11-14T07:09:17.049Z,100.0
2018-11-14T07:10:16.343Z,100.0
2018-11-14T07:11:16.428Z,100.0
2018-11-14T07:12:16.731Z,100.0
2018-11-14T07:13:17.034Z,100.0
2018-11-14T07:14:16.333Z,100.0
2018-11-14T07:15:16.610Z,100.0
2018-11-14T07:16:16.924Z,100.0
2018-11-14T07:17:17.251Z,100.0
2018-11-14T07:18:16.545Z,100.0
2018-11-14T07:19:16.861Z,100.0
2018-11-14T07:20:17.205Z,100.0
2018-11-14T07:21:17.242Z,100.0
2018-11-14T07:22:16.554Z,100.0
2018-11-14T07:23:16.881Z,100.0
2018-11-14T07:24:17.191Z,100.0
2018-11-14T07:25:16.494Z,100.0
2018-11-14T07:26:16.799Z,99.9
2018-11-14T07:27:17.116Z,99.9
2018-11-14T07:28:16.434Z,100.0
2018-11-14T07:29:16.768Z,100.0
2018-11-14T07:30:17.085Z,99.8
2018-11-14T07:31:17.162Z,99.9
2018-11-14T07:32:16.683Z,99.8
2018-11-14T07:33:17.080Z,99.8
2018-11-14T07:34:16.396Z,99.8
2018-11-14T07:35:16.675Z,99.8
2018-11-14T07:36:16.982Z,99.7
2018-11-14T07:37:17.313Z,99.6
2018-11-14T07:38:16.634Z,99.5
2018-11-14T07:39:16.924Z,99.5
2018-11-14T07:40:17.243Z,99.5
2018-11-14T07:41:17.255Z,99.5
2018-11-14T07:42:16.566Z,99.5
2018-11-14T07:43:16.871Z,99.5
2018-11-14T07:44:17.197Z,99.4
2018-11-14T07:45:16.533Z,99.5
2018-11-14T07:46:16.845Z,99.5
2018-11-14T07:47:17.151Z,99.3
2018-11-14T07:48:16.482Z,99.3
2018-11-14T07:49:17.179Z,99.2
2018-11-14T07:50:16.741Z,99.0
2018-11-14T07:51:16.586Z,98.8
2018-11-14T07:52:16.865Z,98.8
2018-11-14T07:53:17.258Z,98.8
2018-11-14T07:54:16.581Z,98.7
2018-11-14T07:55:16.867Z,98.8
2018-11-14T07:56:17.176Z,98.8
2018-11-14T07:57:16.550Z,98.7
2018-11-14T07:58:16.855Z,98.7
2018-11-14T07:59:17.153Z,98.8
2018-11-14T08:00:16.494Z,98.8
2018-11-14T08:01:16.560Z,98.9
2018-11-14T08:02:17.130Z,98.8
2018-11-14T08:03:16.476Z,98.8
2018-11-14T08:04:16.772Z,98.7
2018-11-14T08:05:17.088Z,98.8
2018-11-14T08:06:16.424Z,98.8
2018-11-14T08:07:16.736Z,98.7
2018-11-14T08:08:17.248Z,98.8
2018-11-14T08:09:16.661Z,98.5
2018-11-14T08:10:16.966Z,98.8
2018-11-14T08:11:17.023Z,98.7
2018-11-14T08:12:16.325Z,98.7
2018-11-14T08:13:16.640Z,98.7
2018-11-14T08:14:16.961Z,98.7
2018-11-14T08:15:17.313Z,98.7
2018-11-14T08:16:16.662Z,98.8
2018-11-14T08:17:16.968Z,98.5
2018-11-14T08:18:17.277Z,98.4
2018-11-14T08:19:16.583Z,98.4
2018-11-14T08:20:16.914Z,98.3
2018-11-14T08:21:16.951Z,98.2
2018-11-14T08:22:17.542Z,98.2
2018-11-14T08:23:16.852Z,98.2
2018-11-14T08:24:17.421Z,98.0
2018-11-14T08:25:16.712Z,97.9
2018-11-14T08:26:17.059Z,98.1
2018-11-14T08:27:16.392Z,98.0
2018-11-14T08:28:16.701Z,98.0
2018-11-14T08:29:17.005Z,98.0
2018-11-14T08:30:16.339Z,97.8
2018-11-14T08:31:16.361Z,97.7
2018-11-14T08:32:16.669Z,97.8
2018-11-14T08:33:16.944Z,98.0
2018-11-14T08:34:17.212Z,98.2
2018-11-14T08:35:16.488Z,98.0
2018-11-14T08:36:16.788Z,98.2
2018-11-14T08:37:17.120Z,98.0
2018-11-14T08:38:16.453Z,98.1
2018-11-14T08:39:17.138Z,97.8
2018-11-14T08:40:16.598Z,97.8
2018-11-14T08:41:16.621Z,97.6
2018-11-14T08:42:16.927Z,97.7
2018-11-14T08:43:17.237Z,97.7
2018-11-14T08:44:16.568Z,97.7
2018-11-14T08:45:16.896Z,97.5
2018-11-14T08:46:17.195Z,97.5
2018-11-14T08:47:16.514Z,97.3
2018-11-14T08:48:16.819Z,97.3
2018-11-14T08:49:17.119Z,97.2
2018-11-14T08:50:16.641Z,97.2
2018-11-14T08:51:16.498Z,97.2
2018-11-14T08:52:16.765Z,97.2
2018-11-14T08:53:17.073Z,97.3
2018-11-14T08:54:16.357Z,97.7
2018-11-14T08:55:16.665Z,97.8
2018-11-14T08:56:17.016Z,97.8
2018-11-14T08:57:16.358Z,97.7
2018-11-14T08:58:16.682Z,97.7
2018-11-14T08:59:16.987Z,97.7
2018-11-14T09:00:16.295Z,97.9
2018-11-14T09:01:16.370Z,97.9
2018-11-14T09:02:16.681Z,97.8
2018-11-14T09:03:16.988Z,97.5
2018-11-14T09:04:16.293Z,97.8
2018-11-14T09:05:16.567Z,97.8
2018-11-14T09:06:16.959Z,97.8
2018-11-14T09:07:16.339Z,97.8
2018-11-14T09:08:16.648Z,97.8
2018-11-14T09:09:16.942Z,97.6
2018-11-14T09:10:17.258Z,97.7
2018-11-14T09:11:16.792Z,97.7
2018-11-14T09:12:17.361Z,97.8
2018-11-14T09:13:16.706Z,97.8
2018-11-14T09:14:17.112Z,97.7
2018-11-14T09:15:16.443Z,97.7
2018-11-14T09:16:16.772Z,97.7
2018-11-14T09:17:17.108Z,97.5
2018-11-14T09:18:16.604Z,97.5
2018-11-14T09:19:16.986Z,97.5
2018-11-14T09:20:16.332Z,97.3
2018-11-14T09:21:16.365Z,97.3
2018-11-14T09:22:16.665Z,97.2
2018-11-14T09:23:16.973Z,97.0
2018-11-14T09:24:17.304Z,97.0
2018-11-14T09:25:16.627Z,97.1
2018-11-14T09:26:16.935Z,97.0
2018-11-14T09:27:17.236Z,97.0
2018-11-14T09:28:16.593Z,97.2
2018-11-14T09:29:16.900Z,97.2
2018-11-14T09:30:17.239Z,97.1
2018-11-14T09:31:16.317Z,97.0
2018-11-14T09:32:16.638Z,97.0
2018-11-14T09:33:17.223Z,96.9
2018-11-14T09:34:16.617Z,96.7
2018-11-14T09:35:16.938Z,96.9
2018-11-14T09:36:17.242Z,96.8
2018-11-14T09:37:16.536Z,97.0
2018-11-14T09:38:16.861Z,97.0
2018-11-14T09:39:17.491Z,96.9
2018-11-14T09:40:16.827Z,96.8
2018-11-14T09:41:17.033Z,96.5
2018-11-14T09:42:16.328Z,96.4
2018-11-14T09:43:16.626Z,96.5
2018-11-14T09:44:16.944Z,96.8
2018-11-14T09:45:17.269Z,96.6
2018-11-14T09:46:16.587Z,96.7
2018-11-14T09:47:16.929Z,96.2
2018-11-14T09:48:17.240Z,96.4
2018-11-14T09:49:16.757Z,96.3
2018-11-14T09:50:17.098Z,96.3
2018-11-14T09:51:17.172Z,96.5
2018-11-14T09:52:16.485Z,96.0
2018-11-14T09:53:17.093Z,95.9
2018-11-14T09:54:16.404Z,96.0
2018-11-14T09:55:16.742Z,96.5
2018-11-14T09:56:17.079Z,96.7
2018-11-14T09:57:16.396Z,96.7
2018-11-14T09:58:16.716Z,96.5
2018-11-14T09:59:17.029Z,96.7
2018-11-14T10:00:16.332Z,96.8
2018-11-14T10:01:16.390Z,96.9
2018-11-14T10:02:16.753Z,96.7
2018-11-14T10:03:17.062Z,96.7
2018-11-14T10:04:16.396Z,96.7
2018-11-14T10:05:16.678Z,96.8
2018-11-14T10:06:17.009Z,96.8
2018-11-14T10:07:16.317Z,97.0
2018-11-14T10:08:16.633Z,97.0
2018-11-14T10:09:16.965Z,97.0
2018-11-14T10:10:17.327Z,96.8
2018-11-14T10:11:16.329Z,96.7
2018-11-14T10:12:16.689Z,96.2
2018-11-14T10:13:17.004Z,96.2
2018-11-14T10:14:16.355Z,96.2
2018-11-14T10:15:16.671Z,96.2
2018-11-14T10:16:17.020Z,96.2
2018-11-14T10:17:16.310Z,96.8
2018-11-14T10:18:16.727Z,96.6
2018-11-14T10:19:17.030Z,96.4
2018-11-14T10:20:16.336Z,96.3
2018-11-14T10:21:16.568Z,96.0
2018-11-14T10:22:16.960Z,95.9
2018-11-14T10:23:17.276Z,96.2
2018-11-14T10:24:16.585Z,96.2
2018-11-14T10:25:16.908Z,96.0
2018-11-14T10:26:17.242Z,95.8
2018-11-14T10:27:16.556Z,95.7
2018-11-14T10:28:16.880Z,95.5
2018-11-14T10:29:17.188Z,95.8
2018-11-14T10:30:16.575Z,95.8
2018-11-14T10:31:16.544Z,95.7
2018-11-14T10:32:16.878Z,95.9
2018-11-14T10:33:17.170Z,96.5
2018-11-14T10:34:16.487Z,96.1
2018-11-14T10:35:16.793Z,96.0
2018-11-14T10:36:17.097Z,95.8
2018-11-14T10:37:16.407Z,95.7
2018-11-14T10:38:16.721Z,95.8
2018-11-14T10:39:17.017Z,95.8
2018-11-14T10:40:16.349Z,96.1
2018-11-14T10:41:16.403Z,96.2
2018-11-14T10:42:16.707Z,96.4
2018-11-14T10:43:17.012Z,96.5
2018-11-14T10:44:16.313Z,96.2
2018-11-14T10:45:16.606Z,96.0
2018-11-14T10:46:16.952Z,96.0
2018-11-14T10:47:17.257Z,96.1
2018-11-14T10:48:16.556Z,96.1
2018-11-14T10:49:16.878Z,96.2
2018-11-14T10:50:17.459Z,96.3
2018-11-14T10:51:17.261Z,96.2
2018-11-14T10:52:16.581Z,96.1
2018-11-14T10:53:16.919Z,96.2
2018-11-14T10:54:17.238Z,96.3
2018-11-14T10:55:16.543Z,96.4
2018-11-14T10:56:16.884Z,96.5
2018-11-14T10:57:17.181Z,96.3
2018-11-14T10:58:16.578Z,96.5
2018-11-14T10:59:16.892Z,96.5
2018-11-14T11:00:17.261Z,96.4
2018-11-14T11:01:17.262Z,96.7
2018-11-14T11:02:16.617Z,96.7
2018-11-14T11:03:16.954Z,96.4
2018-11-14T11:04:17.258Z,96.4
2018-11-14T11:05:16.619Z,96.5
2018-11-14T11:06:16.920Z,96.8
2018-11-14T11:07:17.225Z,96.7
2018-11-14T11:08:16.589Z,96.8
2018-11-14T11:09:16.915Z,96.7
2018-11-14T11:10:17.229Z,96.4
2018-11-14T11:11:16.276Z,96.3
2018-11-14T11:12:16.581Z,96.2
2018-11-14T11:13:16.864Z,96.3
2018-11-14T11:14:17.171Z,96.3
2018-11-14T11:15:16.459Z,96.2
2018-11-14T11:16:16.765Z,96.2
2018-11-14T11:17:17.081Z,95.9
2018-11-14T11:18:16.415Z,96.0
2018-11-14T11:19:16.758Z,95.8
2018-11-14T11:20:17.100Z,96.0
2018-11-14T11:21:17.128Z,95.9
2018-11-14T11:22:16.489Z,95.5
2018-11-14T11:23:16.858Z,95.8
2018-11-14T11:24:17.162Z,96.1
2018-11-14T11:25:16.465Z,95.9
2018-11-14T11:26:16.785Z,95.8
2018-11-14T11:27:17.064Z,95.9
2018-11-14T11:28:16.354Z,95.9
2018-11-14T11:29:16.659Z,96.1
2018-11-14T11:30:16.985Z,96.0
2018-11-14T11:31:17.018Z,95.8
2018-11-14T11:32:16.311Z,95.4
2018-11-14T11:33:16.618Z,95.2
2018-11-14T11:34:16.907Z,95.4
2018-11-14T11:35:17.227Z,95.7
2018-11-14T11:36:16.532Z,95.9
2018-11-14T11:37:16.802Z,95.7
2018-11-14T11:38:17.282Z,95.5
2018-11-14T11:39:16.679Z,95.8
2018-11-14T11:40:17.024Z,95.8
2018-11-14T11:41:17.015Z,95.7
2018-11-14T11:42:16.354Z,95.7
2018-11-14T11:43:16.665Z,95.5
2018-11-14T11:44:17.330Z,95.7
2018-11-14T11:45:16.657Z,95.6
2018-11-14T11:46:16.962Z,95.2
2018-11-14T11:47:17.264Z,95.2
2018-11-14T11:48:16.581Z,94.8
2018-11-14T11:49:16.882Z,94.9
2018-11-14T11:50:17.183Z,94.9
2018-11-14T11:51:17.225Z,95.1
2018-11-14T11:52:16.540Z,95.2
2018-11-14T11:53:16.870Z,95.2
2018-11-14T11:54:17.197Z,95.2
2018-11-14T11:55:16.535Z,94.8
2018-11-14T11:56:16.849Z,94.7
2018-11-14T11:57:17.158Z,94.5
2018-11-14T11:58:16.466Z,94.5
2018-11-14T11:59:16.782Z,94.8
2018-11-14T12:00:17.618Z,94.8
2018-11-14T12:01:17.146Z,95.2
2018-11-14T12:02:16.610Z,95.6
2018-11-14T12:03:16.947Z,95.5
2018-11-14T12:04:17.244Z,95.0
2018-11-14T12:05:16.609Z,94.8
2018-11-14T12:06:17.362Z,94.6
2018-11-14T12:07:16.827Z,94.5
2018-11-14T12:08:17.142Z,94.3
2018-11-14T12:09:16.474Z,94.5
2018-11-14T12:10:16.779Z,94.4
2018-11-14T12:11:16.838Z,94.7
2018-11-14T12:12:17.165Z,94.9
2018-11-14T12:13:16.651Z,94.9
2018-11-14T12:14:17.113Z,94.7
2018-11-14T12:15:16.486Z,94.3
2018-11-14T12:16:16.809Z,94.2
2018-11-14T12:17:17.131Z,94.2
2018-11-14T12:18:16.440Z,94.5
2018-11-14T12:19:16.907Z,94.8
2018-11-14T12:20:17.324Z,94.7
2018-11-14T12:21:16.327Z,94.2
2018-11-14T12:22:16.631Z,94.1
2018-11-14T12:23:16.949Z,94.2
2018-11-14T12:24:17.255Z,94.3
2018-11-14T12:25:16.564Z,94.0
2018-11-14T12:26:16.875Z,93.8
2018-11-14T12:27:17.548Z,94.2
2018-11-14T12:28:16.966Z,94.2
2018-11-14T12:29:17.303Z,94.3
2018-11-14T12:30:16.801Z,94.1
2018-11-14T12:31:16.939Z,93.8
2018-11-14T12:32:17.266Z,93.9
2018-11-14T12:33:16.605Z,93.7
2018-11-14T12:34:16.907Z,93.1
2018-11-14T12:35:17.499Z,93.5
2018-11-14T12:36:16.806Z,93.4
2018-11-14T12:37:17.114Z,93.1
2018-11-14T12:38:16.396Z,92.8
2018-11-14T12:39:16.702Z,93.0
2018-11-14T12:40:17.034Z,93.4
2018-11-14T12:41:17.056Z,92.7
2018-11-14T12:42:16.353Z,93.1
2018-11-14T12:43:16.678Z,93.2
2018-11-14T12:44:16.965Z,93.1
2018-11-14T12:45:17.844Z,93.3
2018-11-14T12:46:17.241Z,93.8
2018-11-14T12:47:16.589Z,93.6
2018-11-14T12:48:16.922Z,93.6
2018-11-14T12:49:17.242Z,93.5
2018-11-14T12:50:16.512Z,93.7
2018-11-14T12:51:16.621Z,93.6
2018-11-14T12:52:16.909Z,93.9
2018-11-14T12:53:17.241Z,93.6
2018-11-14T12:54:16.557Z,93.5
2018-11-14T12:55:16.887Z,93.8
2018-11-14T12:56:17.167Z,93.7
2018-11-14T12:57:16.482Z,93.9
2018-11-14T12:58:16.787Z,93.9
2018-11-14T12:59:17.191Z,94.1
2018-11-14T13:00:16.561Z,93.8
2018-11-14T13:01:16.560Z,94.0
2018-11-14T13:02:16.884Z,93.9
2018-11-14T13:03:17.206Z,94.2
2018-11-14T13:04:16.527Z,93.8
2018-11-14T13:05:16.834Z,93.7
2018-11-14T13:06:17.169Z,94.0
2018-11-14T13:07:16.510Z,93.7
2018-11-14T13:08:16.809Z,93.8
2018-11-14T13:09:17.131Z,93.5
2018-11-14T13:10:16.495Z,93.6
2018-11-14T13:11:16.499Z,93.8
2018-11-14T13:12:16.835Z,94.0
2018-11-14T13:13:17.149Z,94.4
2018-11-14T13:14:16.468Z,94.3
2018-11-14T13:15:16.768Z,94.3
2018-11-14T13:16:17.098Z,94.4